createdAt,value
2022-09-04T00:01:56.135Z,10.36
2022-09-04T00:04:35.671Z,10.30
2022-09-04T00:07:17.521Z,10.26
2022-09-04T00:09:54.860Z,10.20
2022-09-04T00:12:30.144Z,10.12
2022-09-04T00:15:04.201Z,10.08
2022-09-04T00:17:41.788Z,10.05
2022-09-04T00:20:15.768Z,10.03
2022-09-04T00:22:53.828Z,10.00
2022-09-04T00:25:26.988Z,9.99
2022-09-04T00:28:02.547Z,9.94
2022-09-04T00:30:31.363Z,9.95
2022-09-04T00:33:11.536Z,9.94
2022-09-04T00:35:44.872Z,9.97
2022-09-04T00:38:19.776Z,9.88
2022-09-04T00:40:59.147Z,9.81
2022-09-04T00:44:01.477Z,9.74
2022-09-04T00:46:41.121Z,9.67
2022-09-04T00:49:57.636Z,9.63
2022-09-04T00:52:43.129Z,9.56
2022-09-04T00:55:39.483Z,9.49
2022-09-04T00:58:19.192Z,9.44
2022-09-04T01:00:49.163Z,9.37
2022-09-04T01:03:45.851Z,9.30
2022-09-04T01:06:30.952Z,9.25
2022-09-04T01:09:22.198Z,9.15
2022-09-04T01:12:03.167Z,9.04
2022-09-04T01:14:41.747Z,9.01
2022-09-04T01:17:19.807Z,8.97
2022-09-04T01:19:56.418Z,8.95
2022-09-04T01:22:51.772Z,8.92
2022-09-04T01:25:56.253Z,8.89
2022-09-04T01:28:32.169Z,8.84
2022-09-04T01:31:07.420Z,8.81
2022-09-04T01:33:44.153Z,8.76
2022-09-04T01:36:20.226Z,8.70
2022-09-04T01:38:53.908Z,8.64
2022-09-04T01:41:29.050Z,8.65
2022-09-04T01:43:59.000Z,8.66
2022-09-04T01:46:47.529Z,8.66
2022-09-04T01:49:25.529Z,8.68
2022-09-04T01:52:04.337Z,8.71
2022-09-04T01:54:44.042Z,8.77
2022-09-04T01:57:23.875Z,8.79
2022-09-04T02:00:03.879Z,8.79
2022-09-04T02:02:41.393Z,8.77
2022-09-04T02:05:18.766Z,8.79
2022-09-04T02:07:51.077Z,8.79
2022-09-04T02:10:31.745Z,8.77
2022-09-04T02:13:10.723Z,8.74
2022-09-04T02:15:49.449Z,8.69
2022-09-04T02:18:33.082Z,8.65
2022-09-04T02:21:09.190Z,8.60
2022-09-04T02:23:46.842Z,8.60
2022-09-04T02:26:21.609Z,8.60
2022-09-04T02:29:01.329Z,8.52
2022-09-04T02:31:39.146Z,8.47
2022-09-04T02:34:14.017Z,8.40
2022-09-04T02:36:50.043Z,8.33
2022-09-04T02:39:34.603Z,8.24
2022-09-04T02:42:12.164Z,8.16
2022-09-04T02:44:51.044Z,8.11
2022-09-04T02:47:29.213Z,8.15
2022-09-04T02:50:04.834Z,8.17
2022-09-04T02:52:51.894Z,8.19
2022-09-04T02:55:31.992Z,8.21
2022-09-04T02:58:14.934Z,8.24
2022-09-04T03:00:54.495Z,8.24
2022-09-04T03:03:32.982Z,8.22
2022-09-04T03:06:07.074Z,8.19
2022-09-04T03:08:41.957Z,8.11
2022-09-04T03:11:18.308Z,8.07
2022-09-04T03:13:54.536Z,8.00
2022-09-04T03:16:28.227Z,7.95
2022-09-04T03:19:16.565Z,7.90
2022-09-04T03:21:52.671Z,7.89
2022-09-04T03:24:27.295Z,7.88
2022-09-04T03:26:58.189Z,7.85
2022-09-04T03:29:37.041Z,7.79
2022-09-04T03:32:17.195Z,7.71
2022-09-04T03:34:55.279Z,7.69
2022-09-04T03:37:52.202Z,7.66
2022-09-04T03:40:34.805Z,7.59
2022-09-04T03:43:33.230Z,7.55
2022-09-04T03:46:13.092Z,7.54
2022-09-04T03:48:53.527Z,7.57
2022-09-04T03:51:38.427Z,7.59
2022-09-04T03:54:19.205Z,7.60
2022-09-04T03:57:10.250Z,7.63
2022-09-04T03:59:52.105Z,7.65
2022-09-04T04:02:33.322Z,7.70
2022-09-04T04:05:29.339Z,7.71
2022-09-04T04:08:33.241Z,7.80
2022-09-04T04:11:15.755Z,7.89
2022-09-04T04:14:05.701Z,7.95
2022-09-04T04:16:47.936Z,7.98
2022-09-04T04:19:44.404Z,8.01
2022-09-04T04:22:46.204Z,8.00
2022-09-04T04:25:36.142Z,7.99
2022-09-04T04:28:22.412Z,7.99
2022-09-04T04:30:53.341Z,8.00
2022-09-04T04:33:33.529Z,7.99
2022-09-04T04:36:17.864Z,7.96
2022-09-04T04:39:06.400Z,7.93
2022-09-04T04:42:06.740Z,7.96
2022-09-04T04:45:20.173Z,7.93
2022-09-04T04:48:08.167Z,7.92
2022-09-04T04:50:44.113Z,7.97
2022-09-04T04:53:20.835Z,8.00
2022-09-04T04:55:54.916Z,8.03
2022-09-04T04:58:42.316Z,8.09
2022-09-04T05:01:21.927Z,8.17
2022-09-04T05:04:03.385Z,8.22
2022-09-04T05:06:39.346Z,8.30
2022-09-04T05:09:17.445Z,8.35
2022-09-04T05:11:55.373Z,8.41
2022-09-04T05:14:36.991Z,8.48
2022-09-04T05:17:16.237Z,8.56
2022-09-04T05:19:52.400Z,8.65
2022-09-04T05:22:29.581Z,8.76
2022-09-04T05:25:10.732Z,8.86
2022-09-04T05:27:54.373Z,9.01
2022-09-04T05:30:35.059Z,9.14
2022-09-04T05:33:15.389Z,9.30
2022-09-04T05:35:49.839Z,9.45
2022-09-04T05:38:30.208Z,9.57
2022-09-04T05:41:06.294Z,9.71
2022-09-04T05:43:57.577Z,9.87
2022-09-04T05:46:43.101Z,9.99
2022-09-04T05:49:22.726Z,10.15
2022-09-04T05:52:25.445Z,10.29
2022-09-04T05:55:32.217Z,10.46
2022-09-04T05:58:25.487Z,10.63
2022-09-04T06:01:08.557Z,10.76
2022-09-04T06:04:10.481Z,11.06
2022-09-04T06:06:47.021Z,11.31
2022-09-04T06:09:33.030Z,11.58
2022-09-04T06:12:19.346Z,11.81
2022-09-04T06:15:23.118Z,12.08
2022-09-04T06:18:08.089Z,12.30
2022-09-04T06:21:03.042Z,12.51
2022-09-04T06:23:45.360Z,12.75
2022-09-04T06:26:19.295Z,12.92
2022-09-04T06:29:08.550Z,13.05
2022-09-04T06:31:58.340Z,13.25
2022-09-04T06:34:45.267Z,13.45
2022-09-04T06:37:28.158Z,13.71
2022-09-04T06:40:12.304Z,13.90
2022-09-04T06:43:05.156Z,14.05
2022-09-04T06:45:56.767Z,14.24
2022-09-04T06:48:43.112Z,14.49
2022-09-04T06:51:24.130Z,14.72
2022-09-04T06:54:07.109Z,14.93
2022-09-04T06:56:50.354Z,15.08
2022-09-04T06:59:49.317Z,15.29
2022-09-04T07:02:32.799Z,15.50
2022-09-04T07:05:16.957Z,15.63
2022-09-04T07:07:55.110Z,15.80
2022-09-04T07:10:30.051Z,15.99
2022-09-04T07:13:37.933Z,16.23
2022-09-04T07:16:22.187Z,16.45
2022-09-04T07:19:26.892Z,16.67
2022-09-04T07:22:09.736Z,16.88
2022-09-04T07:24:52.347Z,17.08
2022-09-04T07:27:36.581Z,17.31
2022-09-04T07:30:08.287Z,17.47
2022-09-04T07:32:39.639Z,17.58
2022-09-04T07:35:17.940Z,17.71
2022-09-04T07:37:58.763Z,17.88
2022-09-04T07:40:34.318Z,18.00
2022-09-04T07:43:19.896Z,18.20
2022-09-04T07:46:00.436Z,18.31
2022-09-04T07:48:36.179Z,18.44
2022-09-04T07:51:11.653Z,18.67
2022-09-04T07:54:05.137Z,18.77
2022-09-04T07:56:54.896Z,18.76
2022-09-04T07:59:54.827Z,18.71
2022-09-04T08:02:40.001Z,18.69
2022-09-04T08:05:24.737Z,18.62
2022-09-04T08:08:19.409Z,18.85
2022-09-04T08:11:01.011Z,19.22
2022-09-04T08:13:46.594Z,19.60
2022-09-04T08:16:28.983Z,19.98
2022-09-04T08:19:15.805Z,20.27
2022-09-04T08:21:46.711Z,19.84
2022-09-04T08:24:35.817Z,19.80
2022-09-04T08:27:14.145Z,20.12
2022-09-04T08:30:04.256Z,20.38
2022-09-04T08:33:05.920Z,20.70
2022-09-04T08:35:40.875Z,21.06
2022-09-04T08:38:42.914Z,21.41
2022-09-04T08:41:48.522Z,21.44
2022-09-04T08:45:09.323Z,21.61
2022-09-04T08:48:15.007Z,21.92
2022-09-04T08:51:06.640Z,22.22
2022-09-04T08:54:03.845Z,22.51
2022-09-04T08:56:43.056Z,22.61
2022-09-04T08:59:48.947Z,22.31
2022-09-04T09:03:02.928Z,22.42
2022-09-04T09:06:06.955Z,22.20
2022-09-04T09:09:21.252Z,22.35
2022-09-04T09:12:25.975Z,22.70
2022-09-04T09:15:47.270Z,22.17
2022-09-04T09:18:40.650Z,21.51
2022-09-04T09:21:12.497Z,21.01
2022-09-04T09:24:00.219Z,20.83
2022-09-04T09:26:36.460Z,21.42
2022-09-04T09:29:44.080Z,21.64
2022-09-04T09:32:50.531Z,21.58
2022-09-04T09:35:58.158Z,21.29
2022-09-04T09:39:02.934Z,21.08
2022-09-04T09:42:22.564Z,21.11
2022-09-04T09:45:19.935Z,20.84
2022-09-04T09:48:25.781Z,20.60
2022-09-04T09:51:29.596Z,20.35
2022-09-04T09:54:43.478Z,21.12
2022-09-04T09:57:56.261Z,22.36
2022-09-04T10:00:30.702Z,23.31
2022-09-04T10:03:39.250Z,24.00
2022-09-04T10:06:49.623Z,24.65
2022-09-04T10:10:04.513Z,24.68
2022-09-04T10:13:08.281Z,25.10
2022-09-04T10:16:05.671Z,25.49
2022-09-04T10:19:08.327Z,25.35
2022-09-04T10:22:20.827Z,24.36
2022-09-04T10:25:28.743Z,23.08
2022-09-04T10:28:26.375Z,22.31
2022-09-04T10:31:21.407Z,21.77
2022-09-04T10:34:11.748Z,21.49
2022-09-04T10:36:54.537Z,22.33
2022-09-04T10:39:56.825Z,22.88
2022-09-04T10:42:38.007Z,23.76
2022-09-04T10:45:20.578Z,23.78
2022-09-04T10:48:28.328Z,23.94
2022-09-04T10:51:27.764Z,23.71
2022-09-04T10:54:45.149Z,23.06
2022-09-04T10:57:30.998Z,22.57
2022-09-04T11:00:08.193Z,22.22
2022-09-04T11:03:15.892Z,21.85
2022-09-04T11:06:34.821Z,21.58
2022-09-04T11:09:28.557Z,21.40
2022-09-04T11:12:26.718Z,21.25
2022-09-04T11:15:16.821Z,21.11
2022-09-04T11:18:12.922Z,20.99
2022-09-04T11:21:29.529Z,21.02
2022-09-04T11:24:44.270Z,21.00
2022-09-04T11:27:51.987Z,20.93
2022-09-04T11:30:23.868Z,20.84
2022-09-04T11:33:42.950Z,20.87
2022-09-04T11:36:56.949Z,20.84
2022-09-04T11:39:54.207Z,20.79
2022-09-04T11:42:33.288Z,20.80
2022-09-04T11:45:27.250Z,20.79
2022-09-04T11:48:37.758Z,20.80
2022-09-04T11:51:40.767Z,20.74
2022-09-04T11:55:03.003Z,20.66
2022-09-04T11:57:49.418Z,20.57
2022-09-04T12:00:19.939Z,20.49
2022-09-04T12:03:34.368Z,20.48
2022-09-04T12:06:26.796Z,20.43
2022-09-04T12:09:27.442Z,20.42
2022-09-04T12:12:34.963Z,20.41
2022-09-04T12:15:24.837Z,20.39
2022-09-04T12:18:33.693Z,20.36
2022-09-04T12:21:41.376Z,20.32
2022-09-04T12:24:27.950Z,20.34
2022-09-04T12:27:29.861Z,20.35
2022-09-04T12:30:06.843Z,20.40
2022-09-04T12:33:08.731Z,20.50
2022-09-04T12:36:10.505Z,20.61
2022-09-04T12:38:56.973Z,20.71
2022-09-04T12:41:33.650Z,20.82
2022-09-04T12:44:13.334Z,20.92
2022-09-04T12:47:02.390Z,21.02
2022-09-04T12:49:58.858Z,21.18
2022-09-04T12:52:45.713Z,21.39
2022-09-04T12:55:23.466Z,21.49
2022-09-04T12:58:04.479Z,21.56
2022-09-04T13:00:48.732Z,21.54
2022-09-04T13:03:28.900Z,21.68
2022-09-04T13:06:15.563Z,21.73
2022-09-04T13:08:54.871Z,21.66
2022-09-04T13:11:37.015Z,21.68
2022-09-04T13:14:14.696Z,21.75
2022-09-04T13:16:54.881Z,21.77
2022-09-04T13:19:36.387Z,21.76
2022-09-04T13:22:17.063Z,21.81
2022-09-04T13:24:53.744Z,21.92
2022-09-04T13:27:41.056Z,22.03
2022-09-04T13:30:15.562Z,22.13
2022-09-04T13:33:18.759Z,22.05
2022-09-04T13:36:13.495Z,21.92
2022-09-04T13:39:11.924Z,21.78
2022-09-04T13:42:10.330Z,21.66
2022-09-04T13:45:05.863Z,21.58
2022-09-04T13:47:48.009Z,21.56
2022-09-04T13:50:22.563Z,21.46
2022-09-04T13:52:59.767Z,21.39
2022-09-04T13:55:33.496Z,21.35
2022-09-04T13:58:11.323Z,21.31
2022-09-04T14:00:46.066Z,21.28
2022-09-04T14:03:32.734Z,21.28
2022-09-04T14:06:03.509Z,21.26
2022-09-04T14:08:34.905Z,21.27
2022-09-04T14:11:21.804Z,21.27
2022-09-04T14:14:11.145Z,21.19
2022-09-04T14:16:41.931Z,21.13
2022-09-04T14:19:26.493Z,21.09
2022-09-04T14:22:12.730Z,21.02
2022-09-04T14:24:51.894Z,20.95
2022-09-04T14:27:28.731Z,20.89
2022-09-04T14:30:07.458Z,20.87
2022-09-04T14:32:50.246Z,20.83
2022-09-04T14:35:29.356Z,20.81
2022-09-04T14:38:29.508Z,20.78
2022-09-04T14:41:06.238Z,20.76
2022-09-04T14:43:44.637Z,20.75
2022-09-04T14:46:28.803Z,20.75
2022-09-04T14:49:02.998Z,20.72
2022-09-04T14:51:36.846Z,20.70
2022-09-04T14:54:07.170Z,20.68
2022-09-04T14:56:45.449Z,20.65
2022-09-04T14:59:20.657Z,20.63
2022-09-04T15:02:12.804Z,20.61
2022-09-04T15:04:47.382Z,20.56
2022-09-04T15:07:35.489Z,20.53
2022-09-04T15:10:15.566Z,20.53
2022-09-04T15:12:51.343Z,20.50
2022-09-04T15:15:24.554Z,20.45
2022-09-04T15:18:01.930Z,20.40
2022-09-04T15:20:37.246Z,20.34
2022-09-04T15:23:14.792Z,20.30
2022-09-04T15:25:59.919Z,20.26
2022-09-04T15:28:38.646Z,20.19
2022-09-04T15:31:18.890Z,20.13
2022-09-04T15:33:50.641Z,20.14
2022-09-04T15:36:25.468Z,20.08
2022-09-04T15:38:57.476Z,20.06
2022-09-04T15:41:37.507Z,20.01
2022-09-04T15:44:29.966Z,19.95
2022-09-04T15:47:05.416Z,19.91
2022-09-04T15:49:49.451Z,19.86
2022-09-04T15:52:31.338Z,19.82
2022-09-04T15:55:12.661Z,19.78
2022-09-04T15:58:00.127Z,19.64
2022-09-04T16:00:33.099Z,19.67
2022-09-04T16:03:12.424Z,19.62
2022-09-04T16:05:47.657Z,19.58
2022-09-04T16:08:31.474Z,19.56
2022-09-04T16:11:03.469Z,19.52
2022-09-04T16:13:46.752Z,19.45
2022-09-04T16:16:22.886Z,19.40
2022-09-04T16:19:05.000Z,19.33
2022-09-04T16:21:45.517Z,19.26
2022-09-04T16:24:17.913Z,19.20
2022-09-04T16:26:50.522Z,19.13
2022-09-04T16:29:29.498Z,19.08
2022-09-04T16:32:00.120Z,19.01
2022-09-04T16:34:34.752Z,18.93
2022-09-04T16:37:14.045Z,18.85
2022-09-04T16:39:57.412Z,18.78
2022-09-04T16:42:30.842Z,18.73
2022-09-04T16:45:08.328Z,18.65
2022-09-04T16:47:45.322Z,18.58
2022-09-04T16:50:25.119Z,18.51
2022-09-04T16:53:13.601Z,18.43
2022-09-04T16:55:50.752Z,18.34
2022-09-04T16:58:40.295Z,18.26
2022-09-04T17:01:16.784Z,18.17
2022-09-04T17:04:13.938Z,18.11
2022-09-04T17:06:54.431Z,18.06
2022-09-04T17:09:32.294Z,18.03
2022-09-04T17:12:17.950Z,17.99
2022-09-04T17:14:52.871Z,17.95
2022-09-04T17:17:31.272Z,17.91
2022-09-04T17:20:03.499Z,17.88
2022-09-04T17:29:05.065Z,17.86
2022-09-04T17:29:11.931Z,17.76
2022-09-04T17:29:14.872Z,17.84
2022-09-04T17:31:45.656Z,17.65
2022-09-04T17:40:36.360Z,17.56
2022-09-04T17:40:46.824Z,17.43
2022-09-04T17:40:55.963Z,17.48
2022-09-04T17:43:27.827Z,17.40
2022-09-04T17:46:12.813Z,17.40
2022-09-04T17:48:44.849Z,17.39
2022-09-04T17:51:21.181Z,17.34
2022-09-04T17:53:54.988Z,17.29
2022-09-04T17:56:28.024Z,17.22
2022-09-04T17:59:03.817Z,17.14
2022-09-04T18:01:38.420Z,17.06
2022-09-04T18:04:24.002Z,16.97
2022-09-04T18:06:59.177Z,16.84
2022-09-04T18:09:37.337Z,16.73
2022-09-04T18:12:16.446Z,16.62
2022-09-04T18:15:32.705Z,16.53
2022-09-04T18:18:01.022Z,16.37
2022-09-04T18:20:38.009Z,16.25
2022-09-04T18:23:51.523Z,16.08
2022-09-04T18:26:40.020Z,15.89
2022-09-04T18:31:46.420Z,15.73
2022-09-04T18:37:07.004Z,15.60
2022-09-04T18:37:20.787Z,15.47
2022-09-04T18:39:09.129Z,15.37
2022-09-04T18:48:02.681Z,15.32
2022-09-04T18:50:29.498Z,15.28
2022-09-04T18:50:52.509Z,15.22
2022-09-04T18:53:43.522Z,15.08
2022-09-04T18:56:21.065Z,15.04
2022-09-04T18:59:07.224Z,14.94
2022-09-04T19:01:43.817Z,14.83
2022-09-04T19:04:35.326Z,14.72
2022-09-04T19:07:08.328Z,14.60
2022-09-04T19:10:00.075Z,14.49
2022-09-04T19:12:47.350Z,14.37
2022-09-04T19:15:37.662Z,14.26
2022-09-04T19:18:16.748Z,14.16
2022-09-04T19:20:54.603Z,14.05
2022-09-04T19:23:33.542Z,13.90
2022-09-04T19:26:10.841Z,13.81
2022-09-04T19:28:52.540Z,13.73
2022-09-04T19:31:31.625Z,13.63
2022-09-04T19:34:09.072Z,13.52
2022-09-04T19:36:46.015Z,13.42
2022-09-04T19:45:54.848Z,13.36
2022-09-04T19:46:13.318Z,13.13
2022-09-04T19:46:19.485Z,13.23
2022-09-04T19:48:24.109Z,13.02
2022-09-04T19:53:30.533Z,13.03
2022-09-04T19:54:03.923Z,12.99
2022-09-04T19:57:31.935Z,12.94
2022-09-04T19:59:36.588Z,12.93
2022-09-04T20:02:21.957Z,12.86
2022-09-04T20:04:55.455Z,12.95
2022-09-04T20:07:41.487Z,12.99
2022-09-04T20:10:22.301Z,13.04
2022-09-04T20:13:03.312Z,13.11
2022-09-04T20:15:32.780Z,13.23
2022-09-04T20:18:15.912Z,13.32
2022-09-04T20:20:49.959Z,13.40
2022-09-04T20:23:29.261Z,13.48
2022-09-04T20:26:13.585Z,13.53
2022-09-04T20:28:51.209Z,13.54
2022-09-04T20:31:36.989Z,13.49
2022-09-04T20:34:19.785Z,13.44
2022-09-04T20:36:52.795Z,13.40
2022-09-04T20:39:29.592Z,13.36
2022-09-04T20:42:05.757Z,13.30
2022-09-04T20:44:51.103Z,13.28
2022-09-04T20:52:45.697Z,13.25
2022-09-04T20:53:00.200Z,13.19
2022-09-04T20:53:31.808Z,13.15
2022-09-04T20:56:26.165Z,13.08
2022-09-04T21:03:13.905Z,12.95
2022-09-04T21:03:18.526Z,12.85
2022-09-04T21:05:47.556Z,12.73
2022-09-04T21:08:29.872Z,12.63
2022-09-04T21:11:02.863Z,12.52
2022-09-04T21:13:47.480Z,12.42
2022-09-04T21:16:30.176Z,12.35
2022-09-04T21:19:29.074Z,12.27
2022-09-04T21:22:33.077Z,12.24
2022-09-04T21:25:18.509Z,12.14
2022-09-04T21:28:16.038Z,12.03
2022-09-04T21:31:09.115Z,11.95
2022-09-04T21:33:46.032Z,11.91
2022-09-04T21:36:26.413Z,11.83
2022-09-04T21:39:20.512Z,11.76
2022-09-04T21:42:17.101Z,11.67
2022-09-04T21:45:14.182Z,11.61
2022-09-04T21:48:18.343Z,11.60
2022-09-04T21:51:17.065Z,11.63
2022-09-04T21:54:37.975Z,11.63
2022-09-04T22:02:25.956Z,11.63
2022-09-04T22:02:41.883Z,11.61
2022-09-04T22:04:02.534Z,11.57
2022-09-04T22:09:30.252Z,11.53
2022-09-04T22:13:31.307Z,11.52
2022-09-04T22:13:41.775Z,11.57
2022-09-04T22:16:00.060Z,11.59
2022-09-04T22:18:51.132Z,11.58
2022-09-04T22:21:29.925Z,11.61
2022-09-04T22:24:43.003Z,11.68
2022-09-04T22:28:08.135Z,11.73
2022-09-04T22:30:55.612Z,11.72
2022-09-04T22:34:15.539Z,11.69
2022-09-04T22:37:08.579Z,11.63
2022-09-04T22:39:46.306Z,11.60
2022-09-04T22:42:41.570Z,11.55
2022-09-04T22:46:06.138Z,11.59
2022-09-04T22:49:09.942Z,11.68
2022-09-04T22:52:16.594Z,11.79
2022-09-04T22:55:22.965Z,11.83
2022-09-04T22:58:10.328Z,11.87
2022-09-04T23:01:02.713Z,11.88
2022-09-04T23:03:47.290Z,11.98
2022-09-04T23:08:12.232Z,12.06
2022-09-04T23:13:48.522Z,12.18
2022-09-04T23:14:00.480Z,12.18
2022-09-04T23:16:06.002Z,12.22
2022-09-04T23:22:27.709Z,12.29
2022-09-04T23:26:41.825Z,12.25
2022-09-04T23:26:50.362Z,12.28
2022-09-04T23:28:28.285Z,12.25
2022-09-04T23:31:20.065Z,12.25
2022-09-04T23:34:42.605Z,12.19
2022-09-04T23:37:41.507Z,12.16
2022-09-04T23:40:36.345Z,12.13
2022-09-04T23:43:32.078Z,12.04
2022-09-04T23:46:32.578Z,12.02
2022-09-04T23:49:22.631Z,12.02
2022-09-04T23:51:58.536Z,12.00
2022-09-04T23:54:57.861Z,12.02
2022-09-04T23:57:30.550Z,12.01
